EFPO

Details ICAO EFPO (POR)
Name Pori
Region Finland
Timezone Europe/Helsinki (UTC+3.0)
Plans Departing 25
Arriving 29
Stats Elevation 44 ft / 13 m (AMSL)
Location 61.461174° 21.799255°
Runways 2
Magnetic Variation 8.108° E
Sunrise 2018-05-26 01:19:36 UTC / 2018-05-26 04:19:36 Local
Sunset 2018-05-26 19:42:58 UTC / 2018-05-26 22:42:58 Local
Advertisement - Login to hide

Runways

ID Width Length Bearing (true) Bearing (mag) Surface Threshold Offset Overrun Length
12 197 ft / 60 m 7,692 ft / 2,345 m 125.81° 117.70° Asphalt 312 ft / 95 m 0 ft / 0 m
17 98 ft / 30 m 2,623 ft / 799 m 173.89° 165.78° Asphalt 400 ft / 122 m 0 ft / 0 m
30 197 ft / 60 m 7,692 ft / 2,345 m 305.84° 297.73° Asphalt 1,132 ft / 345 m 0 ft / 0 m
35 98 ft / 30 m 2,623 ft / 799 m 353.90° 345.79° Asphalt 400 ft / 122 m 0 ft / 0 m

Approach Navaids

Runway Type Ident Frequency Range Bearing (true) Bearing (mag) Slope Elevation
30 Localiser PO 109.10 MHz 18 nm / 33 km 305.81° 297.70° - 44 ft / 13 m (AMSL)
30 Glidescope PO 109.10 MHz 10 nm / 19 km 305.83° 297.72° 3.00° 44 ft / 13 m (AMSL)

Map

Weather


0- 5 10 15 20 25 30 35+ Temperature / ° C

Clouds and Precipitation
Forecast for 2018-05-26 00:00 UTC. Updated 5 hours ago

Ground ~20,000 ft ~40,000 ft Winds

METAR

EFPO 260420Z AUTO 00000KT CAVOK 12/05 Q1029

TAF

Not found

Frequencies

Tower 119.25 MHz TWR
Tower 119.70 MHz TWR
Warning: Do not use this data for real-world aviation or navigation. No guarantee of current accuracy is given.